createdAt,value
2023-03-31T00:01:46.515Z,10.70
2023-03-31T00:04:52.884Z,10.60
2023-03-31T00:08:02.121Z,10.60
2023-03-31T00:11:07.736Z,10.40
2023-03-31T00:14:09.778Z,10.40
2023-03-31T00:17:11.746Z,10.50
2023-03-31T00:20:13.620Z,10.50
2023-03-31T00:23:14.847Z,10.40
2023-03-31T00:26:15.733Z,10.40
2023-03-31T00:29:16.519Z,10.50
2023-03-31T00:32:17.417Z,10.50
2023-03-31T00:35:19.625Z,10.60
2023-03-31T00:38:22.149Z,10.60
2023-03-31T00:41:24.016Z,10.60
2023-03-31T00:44:25.978Z,10.50
2023-03-31T00:47:30.236Z,10.50
2023-03-31T00:50:37.427Z,10.50
2023-03-31T00:53:38.749Z,10.60
2023-03-31T00:56:48.410Z,10.50
2023-03-31T00:59:56.264Z,10.50
2023-03-31T01:03:03.804Z,10.50
2023-03-31T01:06:10.601Z,10.40
2023-03-31T01:09:12.304Z,10.40
2023-03-31T01:12:18.138Z,10.40
2023-03-31T01:15:19.531Z,10.40
2023-03-31T01:18:22.188Z,10.50
2023-03-31T01:22:08.967Z,10.50
2023-03-31T01:25:51.690Z,10.20
2023-03-31T01:29:20.281Z,10.20
2023-03-31T01:32:53.433Z,10.30
2023-03-31T01:36:46.949Z,10.60
2023-03-31T01:40:10.069Z,11.00
2023-03-31T01:43:56.560Z,10.90
2023-03-31T01:47:14.439Z,11.00
2023-03-31T01:50:59.646Z,11.20
2023-03-31T01:54:27.356Z,11.20
2023-03-31T01:57:37.228Z,11.20
2023-03-31T02:00:52.283Z,11.20
2023-03-31T02:04:07.410Z,11.10
2023-03-31T02:07:31.138Z,10.90
2023-03-31T02:10:33.433Z,10.80
2023-03-31T02:13:40.057Z,10.70
2023-03-31T02:16:47.877Z,10.70
2023-03-31T02:19:53.855Z,10.70
2023-03-31T02:22:58.329Z,10.60
2023-03-31T02:26:24.177Z,10.60
2023-03-31T02:29:25.193Z,10.50
2023-03-31T02:32:47.352Z,10.50
2023-03-31T02:35:49.339Z,10.50
2023-03-31T02:39:08.713Z,10.60
2023-03-31T02:42:10.837Z,10.50
2023-03-31T02:45:49.751Z,10.50
2023-03-31T02:48:59.060Z,10.40
2023-03-31T02:52:15.565Z,10.30
2023-03-31T02:55:53.107Z,10.10
2023-03-31T02:59:42.985Z,9.90
2023-03-31T03:02:59.019Z,9.90
2023-03-31T03:06:18.147Z,9.90
2023-03-31T03:10:26.108Z,9.90
2023-03-31T03:14:00.583Z,9.80
2023-03-31T03:17:12.559Z,9.70
2023-03-31T03:20:16.420Z,9.70
2023-03-31T03:23:18.228Z,9.60
2023-03-31T03:26:24.062Z,9.70
2023-03-31T03:29:25.236Z,9.60
2023-03-31T03:32:26.075Z,9.40
2023-03-31T03:35:27.185Z,9.30
2023-03-31T03:38:28.173Z,9.40
2023-03-31T03:41:29.333Z,9.30
2023-03-31T03:44:30.256Z,9.40
2023-03-31T03:47:31.313Z,9.30
2023-03-31T03:50:35.609Z,9.10
2023-03-31T03:53:36.878Z,9.10
2023-03-31T03:56:38.411Z,9.10
2023-03-31T03:59:39.543Z,9.00
2023-03-31T04:02:41.134Z,8.90
2023-03-31T04:05:42.787Z,8.80
2023-03-31T04:08:44.028Z,8.90
2023-03-31T04:11:44.902Z,8.90
2023-03-31T04:14:45.716Z,8.80
2023-03-31T04:17:51.182Z,8.70
2023-03-31T04:21:06.173Z,8.70
2023-03-31T04:24:07.710Z,8.80
2023-03-31T04:27:09.095Z,8.90
2023-03-31T04:30:11.882Z,8.80
2023-03-31T04:33:15.703Z,8.80
2023-03-31T04:36:19.399Z,8.70
2023-03-31T04:39:27.170Z,8.60
2023-03-31T04:42:28.188Z,8.60
2023-03-31T04:45:29.041Z,8.60
2023-03-31T04:48:29.980Z,8.60
2023-03-31T04:51:30.823Z,8.60
2023-03-31T04:54:31.999Z,8.60
2023-03-31T04:57:33.514Z,8.60
2023-03-31T05:00:34.708Z,8.60
2023-03-31T05:03:35.890Z,8.60
2023-03-31T05:06:37.216Z,8.70
2023-03-31T05:09:38.051Z,8.80
2023-03-31T05:12:39.859Z,8.80
2023-03-31T05:15:41.314Z,8.80
2023-03-31T05:18:44.420Z,8.90
2023-03-31T05:21:45.713Z,9.10
2023-03-31T05:24:47.974Z,9.10
2023-03-31T05:27:50.175Z,9.20
2023-03-31T05:30:51.462Z,9.20
2023-03-31T05:33:52.363Z,9.00
2023-03-31T05:36:54.165Z,9.00
2023-03-31T05:39:55.408Z,9.00
2023-03-31T05:42:56.349Z,9.00
2023-03-31T05:45:57.141Z,8.90
2023-03-31T05:48:59.048Z,8.90
2023-03-31T05:52:00.405Z,8.80
2023-03-31T05:55:01.424Z,8.90
2023-03-31T05:58:02.552Z,8.90
2023-03-31T06:01:24.155Z,8.90
2023-03-31T06:04:25.924Z,9.00
2023-03-31T06:07:27.131Z,8.90
2023-03-31T06:10:28.437Z,8.90
2023-03-31T06:13:29.313Z,9.00
2023-03-31T06:16:30.412Z,8.90
2023-03-31T06:19:31.686Z,8.80
2023-03-31T06:22:33.233Z,8.80
2023-03-31T06:25:47.698Z,8.80
2023-03-31T06:28:51.581Z,8.80
2023-03-31T06:31:52.936Z,8.70
2023-03-31T06:34:54.066Z,8.80
2023-03-31T06:37:54.864Z,8.90
2023-03-31T06:40:56.167Z,9.00
2023-03-31T06:43:57.156Z,9.10
2023-03-31T06:46:58.273Z,9.20
2023-03-31T06:49:59.846Z,9.30
2023-03-31T06:53:00.679Z,9.40
2023-03-31T06:56:02.038Z,9.40
2023-03-31T06:59:02.976Z,9.70
2023-03-31T07:02:04.171Z,10.10
2023-03-31T07:05:05.632Z,10.30
2023-03-31T07:08:06.857Z,10.70
2023-03-31T07:11:08.002Z,10.70
2023-03-31T07:14:09.142Z,10.90
2023-03-31T07:17:10.135Z,11.00
2023-03-31T07:20:16.370Z,11.10
2023-03-31T07:23:18.119Z,11.10
2023-03-31T07:26:19.498Z,11.10
2023-03-31T07:29:20.806Z,11.10
2023-03-31T07:32:24.476Z,11.40
2023-03-31T07:35:27.054Z,11.80
2023-03-31T07:38:32.031Z,11.60
2023-03-31T07:41:33.398Z,11.40
2023-03-31T07:44:38.202Z,11.50
2023-03-31T07:47:40.351Z,11.60
2023-03-31T07:50:41.468Z,11.60
2023-03-31T07:53:52.811Z,11.80
2023-03-31T07:56:54.124Z,12.20
2023-03-31T07:59:55.166Z,12.20
2023-03-31T08:02:56.495Z,11.90
2023-03-31T08:05:58.002Z,12.00
2023-03-31T08:08:59.573Z,11.90
2023-03-31T08:12:00.706Z,11.80
2023-03-31T08:15:01.797Z,11.80
2023-03-31T08:18:05.356Z,11.70
2023-03-31T08:21:07.932Z,11.70
2023-03-31T08:24:09.300Z,11.60
2023-03-31T08:27:12.521Z,11.70
2023-03-31T08:30:14.264Z,11.90
2023-03-31T08:33:15.850Z,12.10
2023-03-31T08:36:16.952Z,12.10
2023-03-31T08:39:18.302Z,12.30
2023-03-31T08:42:39.255Z,12.40
2023-03-31T08:45:46.769Z,12.30
2023-03-31T08:48:59.091Z,12.30
2023-03-31T08:52:05.085Z,12.20
2023-03-31T08:55:16.288Z,12.40
2023-03-31T08:58:55.797Z,12.60
2023-03-31T09:02:42.924Z,13.10
2023-03-31T09:06:01.301Z,12.80
2023-03-31T09:09:05.782Z,12.20
2023-03-31T09:12:18.121Z,12.20
2023-03-31T09:15:47.789Z,12.20
2023-03-31T09:18:49.410Z,12.10
2023-03-31T09:21:56.191Z,12.10
2023-03-31T09:25:23.931Z,12.10
2023-03-31T09:28:39.951Z,12.20
2023-03-31T09:31:44.117Z,12.30
2023-03-31T09:34:48.185Z,12.40
2023-03-31T09:37:50.280Z,12.60
2023-03-31T09:40:51.548Z,12.90
2023-03-31T09:43:52.366Z,12.90
2023-03-31T09:46:55.482Z,12.70
2023-03-31T09:49:56.913Z,12.50
2023-03-31T09:53:02.146Z,12.30
2023-03-31T09:56:09.127Z,12.10
2023-03-31T09:59:19.417Z,12.10
2023-03-31T10:02:41.773Z,12.30
2023-03-31T10:05:54.511Z,13.30
2023-03-31T10:09:03.872Z,15.80
2023-03-31T10:12:17.812Z,14.90
2023-03-31T10:15:29.585Z,14.00
2023-03-31T10:18:43.869Z,13.90
2023-03-31T10:21:48.714Z,13.40
2023-03-31T10:24:53.772Z,14.30
2023-03-31T10:27:57.893Z,15.90
2023-03-31T10:31:04.363Z,15.90
2023-03-31T10:34:13.091Z,14.90
2023-03-31T10:37:23.817Z,13.80
2023-03-31T10:40:32.840Z,13.40
2023-03-31T10:43:47.968Z,13.40
2023-03-31T10:46:53.097Z,13.20
2023-03-31T10:49:58.139Z,13.50
2023-03-31T10:53:11.680Z,14.20
2023-03-31T10:56:52.744Z,14.70
2023-03-31T11:00:18.709Z,15.50
2023-03-31T11:03:59.812Z,15.40
2023-03-31T11:07:29.697Z,14.70
2023-03-31T11:10:56.440Z,14.60
2023-03-31T11:14:10.473Z,14.20
2023-03-31T11:17:50.755Z,13.30
2023-03-31T11:21:20.625Z,11.60
2023-03-31T11:24:51.891Z,10.60
2023-03-31T11:28:10.606Z,9.90
2023-03-31T11:31:28.911Z,9.30
2023-03-31T11:35:16.639Z,9.20
2023-03-31T11:39:00.346Z,9.10
2023-03-31T11:42:18.668Z,9.20
2023-03-31T11:45:56.910Z,9.30
2023-03-31T11:49:06.814Z,9.20
2023-03-31T11:52:22.807Z,9.30
2023-03-31T11:55:28.978Z,9.60
2023-03-31T11:58:56.441Z,10.80
2023-03-31T12:02:16.289Z,12.00
2023-03-31T12:05:21.849Z,11.80
2023-03-31T12:08:42.202Z,11.50
2023-03-31T12:12:18.778Z,11.20
2023-03-31T12:15:30.393Z,10.80
2023-03-31T12:19:14.472Z,10.40
2023-03-31T12:22:27.975Z,10.30
2023-03-31T12:26:03.255Z,10.20
2023-03-31T12:29:28.351Z,10.20
2023-03-31T12:32:36.961Z,10.30
2023-03-31T12:36:09.617Z,10.40
2023-03-31T12:39:23.353Z,10.40
2023-03-31T12:42:48.804Z,10.50
2023-03-31T12:46:42.624Z,10.40
2023-03-31T12:49:56.917Z,10.50
2023-03-31T12:53:43.849Z,8.00
2023-03-31T12:57:09.907Z,7.40
2023-03-31T13:00:21.275Z,7.30
2023-03-31T13:03:43.809Z,7.10
2023-03-31T13:06:49.306Z,7.30
2023-03-31T13:09:54.187Z,7.50
2023-03-31T13:13:15.153Z,8.00
2023-03-31T13:16:21.344Z,8.90
2023-03-31T13:19:36.572Z,9.10
2023-03-31T13:22:43.725Z,10.70
2023-03-31T13:25:49.493Z,10.40
2023-03-31T13:29:15.490Z,12.30
2023-03-31T13:32:24.456Z,11.30
2023-03-31T13:35:32.015Z,12.40
2023-03-31T13:38:51.727Z,11.20
2023-03-31T13:42:34.636Z,10.40
2023-03-31T13:46:10.515Z,10.10
2023-03-31T13:49:20.269Z,10.10
2023-03-31T13:53:14.505Z,10.10
2023-03-31T13:56:40.295Z,10.10
2023-03-31T14:00:48.188Z,10.00
2023-03-31T14:04:25.635Z,10.00
2023-03-31T14:07:38.739Z,9.90
2023-03-31T14:10:42.846Z,9.90
2023-03-31T14:13:43.839Z,9.90
2023-03-31T14:17:02.363Z,10.00
2023-03-31T14:20:35.819Z,10.00
2023-03-31T14:23:57.191Z,10.10
2023-03-31T14:27:31.069Z,10.20
2023-03-31T14:30:59.067Z,10.50
2023-03-31T14:34:51.266Z,10.80
2023-03-31T14:37:52.342Z,11.00
2023-03-31T14:40:57.793Z,11.70
2023-03-31T14:44:06.444Z,15.10
2023-03-31T14:47:22.154Z,16.50
2023-03-31T14:50:35.902Z,16.90
2023-03-31T14:53:37.415Z,15.60
2023-03-31T14:56:41.235Z,14.90
2023-03-31T14:59:45.608Z,16.50
2023-03-31T15:02:47.946Z,14.00
2023-03-31T15:05:50.391Z,16.00
2023-03-31T15:08:57.646Z,13.80
2023-03-31T15:12:05.277Z,13.60
2023-03-31T15:15:08.364Z,13.80
2023-03-31T15:18:14.851Z,15.50
2023-03-31T15:21:25.643Z,16.50
2023-03-31T15:24:26.847Z,12.80
2023-03-31T15:27:42.055Z,12.10
2023-03-31T15:30:47.719Z,11.60
2023-03-31T15:33:50.870Z,8.50
2023-03-31T15:36:57.146Z,7.00
2023-03-31T15:40:02.462Z,6.90
2023-03-31T15:43:14.345Z,6.90
2023-03-31T15:46:39.999Z,7.00
2023-03-31T15:50:13.459Z,6.90
2023-03-31T15:53:44.077Z,7.00
2023-03-31T15:56:46.316Z,7.00
2023-03-31T15:59:55.755Z,7.00
2023-03-31T16:03:00.017Z,7.80
2023-03-31T16:06:07.471Z,8.00
2023-03-31T16:09:29.398Z,7.80
2023-03-31T16:13:02.727Z,7.70
2023-03-31T16:16:10.752Z,7.70
2023-03-31T16:19:12.013Z,7.80
2023-03-31T16:22:21.700Z,7.70
2023-03-31T16:25:25.629Z,7.70
2023-03-31T16:28:34.779Z,7.70
2023-03-31T16:31:41.053Z,7.60
2023-03-31T16:35:00.568Z,7.60
2023-03-31T16:38:04.693Z,7.70
2023-03-31T16:41:07.550Z,7.80
2023-03-31T16:44:09.037Z,7.80
2023-03-31T16:47:15.033Z,7.80
2023-03-31T16:50:18.803Z,7.90
2023-03-31T16:53:23.368Z,7.90
2023-03-31T16:56:24.412Z,8.00
2023-03-31T16:59:25.540Z,8.00
2023-03-31T17:02:26.590Z,8.10
2023-03-31T17:05:29.032Z,8.10
2023-03-31T17:08:30.332Z,8.00
2023-03-31T17:11:34.109Z,8.00
2023-03-31T17:14:35.536Z,8.10
2023-03-31T17:17:37.110Z,8.00
2023-03-31T17:20:38.831Z,8.00
2023-03-31T17:23:41.366Z,8.00
2023-03-31T17:26:42.526Z,8.00
2023-03-31T17:29:43.461Z,8.00
2023-03-31T17:32:44.423Z,8.00
2023-03-31T17:35:45.326Z,7.90
2023-03-31T17:38:46.278Z,8.00
2023-03-31T17:41:47.583Z,8.00
2023-03-31T17:44:50.436Z,8.00
2023-03-31T17:47:51.944Z,8.00
2023-03-31T17:50:53.181Z,8.00
2023-03-31T17:53:54.310Z,8.00
2023-03-31T17:56:55.168Z,8.10
2023-03-31T17:59:57.199Z,8.20
2023-03-31T18:02:58.470Z,8.30
2023-03-31T18:06:08.737Z,8.30
2023-03-31T18:09:09.779Z,8.30
2023-03-31T18:12:10.543Z,8.30
2023-03-31T18:15:11.930Z,8.30
2023-03-31T18:18:12.771Z,8.30
2023-03-31T18:21:14.461Z,8.40
2023-03-31T18:24:15.627Z,8.40
2023-03-31T18:27:16.671Z,8.60
2023-03-31T18:30:17.941Z,8.80
2023-03-31T18:33:20.402Z,8.90
2023-03-31T18:36:23.573Z,9.00
2023-03-31T18:39:24.980Z,8.90
2023-03-31T18:42:26.109Z,9.00
2023-03-31T18:45:28.434Z,9.00
2023-03-31T18:48:30.150Z,9.10
2023-03-31T18:51:31.174Z,9.20
2023-03-31T18:54:32.198Z,9.30
2023-03-31T18:57:33.708Z,9.00
2023-03-31T19:00:36.018Z,8.30
2023-03-31T19:03:38.122Z,7.80
2023-03-31T19:06:39.302Z,7.80
2023-03-31T19:09:40.389Z,7.80
2023-03-31T19:12:46.966Z,7.70
2023-03-31T19:15:48.767Z,7.60
2023-03-31T19:18:49.687Z,7.30
2023-03-31T19:21:52.571Z,7.20
2023-03-31T19:24:53.408Z,7.30
2023-03-31T19:27:54.814Z,7.20
2023-03-31T19:30:56.911Z,7.20
2023-03-31T19:33:58.772Z,7.20
2023-03-31T19:37:02.161Z,7.10
2023-03-31T19:40:03.384Z,7.10
2023-03-31T19:43:04.824Z,7.10
2023-03-31T19:46:06.169Z,7.10
2023-03-31T19:49:07.555Z,7.20
2023-03-31T19:52:08.760Z,7.20
2023-03-31T19:55:09.663Z,7.40
2023-03-31T19:58:11.308Z,7.40
2023-03-31T20:01:19.708Z,7.40
2023-03-31T20:04:21.215Z,7.40
2023-03-31T20:07:23.354Z,7.50
2023-03-31T20:10:24.792Z,7.50
2023-03-31T20:13:25.674Z,7.50
2023-03-31T20:16:30.900Z,7.50
2023-03-31T20:19:32.095Z,7.50
2023-03-31T20:22:33.479Z,7.50
2023-03-31T20:25:37.848Z,7.50
2023-03-31T20:28:40.400Z,7.50
2023-03-31T20:31:42.110Z,7.50
2023-03-31T20:34:43.038Z,7.60
2023-03-31T20:37:44.217Z,7.60
2023-03-31T20:40:49.458Z,7.70
2023-03-31T20:43:50.913Z,7.70
2023-03-31T20:46:52.720Z,7.70
2023-03-31T20:49:53.911Z,7.80
2023-03-31T20:52:54.998Z,7.80
2023-03-31T20:55:55.797Z,7.80
2023-03-31T20:58:59.258Z,7.90
2023-03-31T21:02:01.209Z,8.00
2023-03-31T21:05:02.303Z,8.00
2023-03-31T21:08:04.097Z,7.80
2023-03-31T21:11:05.176Z,7.70
2023-03-31T21:14:06.861Z,7.70
2023-03-31T21:17:08.120Z,7.70
2023-03-31T21:20:10.237Z,7.80
2023-03-31T21:23:11.230Z,7.80
2023-03-31T21:26:16.013Z,7.80
2023-03-31T21:29:17.363Z,7.90
2023-03-31T21:32:18.685Z,7.80
2023-03-31T21:35:19.893Z,7.90
2023-03-31T21:38:21.248Z,8.00
2023-03-31T21:41:30.345Z,8.00
2023-03-31T21:44:31.439Z,8.10
2023-03-31T21:47:33.000Z,8.00
2023-03-31T21:50:36.104Z,8.10
2023-03-31T21:53:37.216Z,8.20
2023-03-31T21:56:37.981Z,8.20
2023-03-31T21:59:39.543Z,8.20
2023-03-31T22:02:40.650Z,8.20
2023-03-31T22:05:41.843Z,8.10
2023-03-31T22:08:43.070Z,8.10
2023-03-31T22:11:44.882Z,8.10
2023-03-31T22:14:45.687Z,8.20
2023-03-31T22:17:46.519Z,8.20
2023-03-31T22:20:49.514Z,8.20
2023-03-31T22:23:57.253Z,8.20
2023-03-31T22:26:58.601Z,8.20
2023-03-31T22:29:59.743Z,8.20
2023-03-31T22:33:01.614Z,8.20
2023-03-31T22:36:03.623Z,8.10
2023-03-31T22:39:04.809Z,8.10
2023-03-31T22:42:05.812Z,8.20
2023-03-31T22:45:07.289Z,8.20
2023-03-31T22:48:10.060Z,8.00
2023-03-31T22:51:12.253Z,8.00
2023-03-31T22:54:16.730Z,8.10
2023-03-31T22:57:17.871Z,8.00
2023-03-31T23:00:19.573Z,8.10
2023-03-31T23:03:20.586Z,8.10
2023-03-31T23:06:22.062Z,8.00
2023-03-31T23:09:24.184Z,8.00
2023-03-31T23:12:27.203Z,8.00
2023-03-31T23:15:28.262Z,8.00
2023-03-31T23:18:30.585Z,7.90
2023-03-31T23:21:32.800Z,7.90
2023-03-31T23:24:33.842Z,7.90
2023-03-31T23:27:34.778Z,8.00
2023-03-31T23:30:36.354Z,8.00
2023-03-31T23:33:38.092Z,8.00
2023-03-31T23:36:39.472Z,7.90
2023-03-31T23:39:41.020Z,7.80
2023-03-31T23:42:42.215Z,7.80
2023-03-31T23:45:43.892Z,7.70
2023-03-31T23:48:45.574Z,7.70
2023-03-31T23:51:46.418Z,7.70
2023-03-31T23:54:47.633Z,7.80
2023-03-31T23:57:48.870Z,7.70
